createdAt,value
2023-04-10T00:00:46.591Z,6.71
2023-04-10T00:03:14.275Z,6.67
2023-04-10T00:05:42.109Z,6.63
2023-04-10T00:08:11.170Z,6.59
2023-04-10T00:10:38.744Z,6.56
2023-04-10T00:13:06.290Z,6.56
2023-04-10T00:15:33.835Z,6.54
2023-04-10T00:18:01.572Z,6.52
2023-04-10T00:20:29.176Z,6.53
2023-04-10T00:22:56.731Z,6.54
2023-04-10T00:25:26.609Z,6.52
2023-04-10T00:27:54.375Z,6.48
2023-04-10T00:30:22.103Z,6.43
2023-04-10T00:32:49.678Z,6.38
2023-04-10T00:35:17.195Z,6.33
2023-04-10T00:37:44.734Z,6.28
2023-04-10T00:40:12.684Z,6.21
2023-04-10T00:42:41.665Z,6.13
2023-04-10T00:45:10.863Z,6.09
2023-04-10T00:47:38.967Z,6.04
2023-04-10T00:50:07.523Z,5.95
2023-04-10T00:52:35.249Z,5.90
2023-04-10T00:55:03.553Z,5.90
2023-04-10T00:57:31.172Z,5.94
2023-04-10T01:00:01.063Z,5.96
2023-04-10T01:02:28.676Z,6.01
2023-04-10T01:04:56.440Z,6.04
2023-04-10T01:07:36.430Z,6.09
2023-04-10T01:10:16.148Z,6.14
2023-04-10T01:12:59.396Z,6.17
2023-04-10T01:15:31.798Z,6.13
2023-04-10T01:18:05.572Z,6.10
2023-04-10T01:20:35.751Z,6.05
2023-04-10T01:23:20.604Z,6.06
2023-04-10T01:25:53.175Z,6.06
2023-04-10T01:28:48.895Z,6.04
2023-04-10T01:31:21.492Z,5.98
2023-04-10T01:33:53.082Z,5.93
2023-04-10T01:36:25.144Z,5.89
2023-04-10T01:38:55.836Z,5.88
2023-04-10T01:41:24.924Z,5.89
2023-04-10T01:43:55.991Z,5.87
2023-04-10T01:46:24.964Z,5.85
2023-04-10T01:48:55.627Z,5.81
2023-04-10T01:51:24.692Z,5.74
2023-04-10T01:53:53.229Z,5.67
2023-04-10T01:56:21.886Z,5.61
2023-04-10T01:58:49.741Z,5.57
2023-04-10T02:01:29.178Z,5.54
2023-04-10T02:03:58.932Z,5.50
2023-04-10T02:06:35.728Z,5.46
2023-04-10T02:09:11.516Z,5.44
2023-04-10T02:11:46.399Z,5.42
2023-04-10T02:14:18.203Z,5.39
2023-04-10T02:16:48.300Z,5.33
2023-04-10T02:19:17.305Z,5.27
2023-04-10T02:21:45.006Z,5.23
2023-04-10T02:24:12.678Z,5.19
2023-04-10T02:26:47.037Z,5.12
2023-04-10T02:29:14.634Z,5.07
2023-04-10T02:31:42.345Z,5.04
2023-04-10T02:34:11.502Z,5.00
2023-04-10T02:36:39.880Z,4.97
2023-04-10T02:39:08.236Z,4.92
2023-04-10T02:41:35.818Z,4.90
2023-04-10T02:44:03.365Z,4.87
2023-04-10T02:46:31.129Z,4.84
2023-04-10T02:48:58.742Z,4.80
2023-04-10T02:51:27.730Z,4.77
2023-04-10T02:53:55.355Z,4.72
2023-04-10T02:56:23.084Z,4.68
2023-04-10T02:58:50.800Z,4.65
2023-04-10T03:01:18.480Z,4.59
2023-04-10T03:03:46.148Z,4.54
2023-04-10T03:06:13.715Z,4.52
2023-04-10T03:08:42.583Z,4.49
2023-04-10T03:11:10.416Z,4.46
2023-04-10T03:13:37.969Z,4.45
2023-04-10T03:16:05.981Z,4.44
2023-04-10T03:18:34.331Z,4.43
2023-04-10T03:21:02.583Z,4.43
2023-04-10T03:23:30.170Z,4.44
2023-04-10T03:25:58.981Z,4.44
2023-04-10T03:28:27.759Z,4.43
2023-04-10T03:30:55.355Z,4.42
2023-04-10T03:33:23.022Z,4.41
2023-04-10T03:35:50.703Z,4.39
2023-04-10T03:38:18.300Z,4.37
2023-04-10T03:40:45.972Z,4.36
2023-04-10T03:43:14.830Z,4.34
2023-04-10T03:45:42.494Z,4.33
2023-04-10T03:48:09.985Z,4.34
2023-04-10T03:53:34.590Z,4.34
2023-04-10T04:05:38.379Z,4.45
2023-04-10T04:22:29.277Z,4.44
2023-04-10T04:24:56.795Z,4.47
2023-04-10T04:27:26.478Z,4.48
2023-04-10T04:30:16.487Z,4.47
2023-04-10T04:35:10.289Z,4.43
2023-04-10T04:37:39.101Z,4.39
2023-04-10T04:40:07.695Z,4.36
2023-04-10T04:42:35.815Z,4.36
2023-04-10T04:45:03.386Z,4.33
2023-04-10T04:47:30.930Z,4.29
2023-04-10T04:49:58.592Z,4.29
2023-04-10T04:52:27.426Z,4.30
2023-04-10T04:54:56.378Z,4.37
2023-04-10T04:57:24.061Z,4.44
2023-04-10T04:59:51.654Z,4.54
2023-04-10T05:02:22.808Z,4.65
2023-04-10T05:04:50.782Z,4.71
2023-04-10T05:07:18.531Z,4.77
2023-04-10T05:09:46.167Z,4.82
2023-04-10T05:12:15.007Z,4.86
2023-04-10T05:14:42.553Z,4.91
2023-04-10T05:17:10.069Z,4.93
2023-04-10T05:19:37.617Z,4.98
2023-04-10T05:22:05.270Z,5.05
2023-04-10T05:24:32.877Z,5.10
2023-04-10T05:27:00.689Z,5.09
2023-04-10T05:29:29.562Z,5.12
2023-04-10T05:31:57.167Z,5.15
2023-04-10T05:34:24.744Z,5.18
2023-04-10T05:36:52.446Z,5.21
2023-04-10T05:39:20.118Z,5.25
2023-04-10T05:41:47.660Z,5.28
2023-04-10T05:44:15.333Z,5.33
2023-04-10T05:46:44.482Z,5.40
2023-04-10T05:49:12.093Z,5.45
2023-04-10T05:51:39.753Z,5.53
2023-04-10T05:54:07.281Z,5.62
2023-04-10T05:56:34.911Z,5.69
2023-04-10T05:59:02.527Z,5.76
2023-04-10T06:01:30.034Z,5.84
2023-04-10T06:03:59.015Z,5.94
2023-04-10T06:06:27.024Z,6.04
2023-04-10T06:08:54.901Z,6.12
2023-04-10T06:11:22.935Z,6.16
2023-04-10T06:13:50.971Z,6.23
2023-04-10T06:16:19.247Z,6.28
2023-04-10T06:18:47.956Z,6.36
2023-04-10T06:21:17.485Z,6.43
2023-04-10T06:23:45.635Z,6.48
2023-04-10T06:26:13.528Z,6.60
2023-04-10T06:28:42.139Z,6.71
2023-04-10T06:31:10.172Z,6.81
2023-04-10T06:33:37.722Z,6.94
2023-04-10T06:36:06.358Z,7.08
2023-04-10T06:38:37.777Z,7.22
2023-04-10T06:41:06.338Z,7.35
2023-04-10T06:43:35.479Z,7.49
2023-04-10T06:46:04.682Z,7.61
2023-04-10T06:48:32.888Z,7.74
2023-04-10T06:51:01.549Z,7.83
2023-04-10T06:53:29.565Z,7.93
2023-04-10T06:56:01.543Z,8.04
2023-04-10T06:58:31.054Z,8.16
2023-04-10T07:00:59.036Z,8.28
2023-04-10T07:03:26.697Z,8.43
2023-04-10T07:05:54.240Z,8.57
2023-04-10T07:08:21.897Z,8.70
2023-04-10T07:10:49.458Z,8.81
2023-04-10T07:13:18.302Z,8.93
2023-04-10T07:15:45.920Z,9.08
2023-04-10T07:18:13.487Z,9.22
2023-04-10T07:20:41.340Z,9.37
2023-04-10T07:23:08.964Z,9.52
2023-04-10T07:25:36.896Z,9.72
2023-04-10T07:28:04.636Z,9.90
2023-04-10T07:30:33.682Z,10.05
2023-04-10T07:33:01.828Z,10.18
2023-04-10T07:35:29.803Z,10.30
2023-04-10T07:37:57.682Z,10.54
2023-04-10T07:40:25.334Z,10.77
2023-04-10T07:42:53.957Z,10.98
2023-04-10T07:45:21.850Z,11.11
2023-04-10T07:47:51.587Z,11.26
2023-04-10T07:50:19.573Z,11.38
2023-04-10T07:52:47.380Z,11.45
2023-04-10T07:55:15.547Z,11.64
2023-04-10T07:57:45.236Z,11.93
2023-04-10T08:00:15.016Z,12.94
2023-04-10T08:02:43.603Z,14.48
2023-04-10T08:05:13.791Z,15.72
2023-04-10T08:07:42.991Z,16.66
2023-04-10T08:10:12.039Z,17.62
2023-04-10T08:12:40.540Z,18.54
2023-04-10T08:15:10.420Z,19.40
2023-04-10T08:17:46.878Z,20.13
2023-04-10T08:20:17.315Z,20.86
2023-04-10T08:22:45.111Z,21.33
2023-04-10T08:25:12.769Z,21.59
2023-04-10T08:27:40.343Z,21.71
2023-04-10T08:30:08.929Z,21.89
2023-04-10T08:32:36.925Z,21.62
2023-04-10T08:35:04.917Z,21.28
2023-04-10T08:37:34.004Z,21.24
2023-04-10T08:40:01.709Z,21.14
2023-04-10T08:42:29.470Z,21.13
2023-04-10T08:44:57.097Z,21.24
2023-04-10T08:47:28.914Z,21.36
2023-04-10T08:49:58.836Z,21.61
2023-04-10T08:52:27.229Z,21.82
2023-04-10T08:54:58.305Z,22.16
2023-04-10T08:57:27.209Z,22.50
2023-04-10T08:59:54.808Z,22.77
2023-04-10T09:02:23.156Z,23.32
2023-04-10T09:04:52.478Z,23.89
2023-04-10T09:07:20.130Z,24.30
2023-04-10T09:09:47.937Z,24.79
2023-04-10T09:12:17.636Z,24.97
2023-04-10T09:14:45.445Z,24.93
2023-04-10T09:17:15.773Z,25.11
2023-04-10T09:19:44.191Z,25.55
2023-04-10T09:22:12.386Z,25.80
2023-04-10T09:24:41.408Z,26.29
2023-04-10T09:27:09.858Z,26.60
2023-04-10T09:29:43.364Z,26.33
2023-04-10T09:32:11.103Z,25.95
2023-04-10T09:34:54.026Z,25.85
2023-04-10T09:37:22.661Z,26.06
2023-04-10T09:39:50.665Z,26.35
2023-04-10T09:42:32.533Z,26.04
2023-04-10T09:45:02.441Z,25.88
2023-04-10T09:47:30.653Z,25.83
2023-04-10T09:50:00.822Z,26.06
2023-04-10T09:52:30.184Z,26.00
2023-04-10T09:54:59.263Z,25.94
2023-04-10T09:57:28.596Z,25.80
2023-04-10T09:59:57.519Z,25.13
2023-04-10T10:02:31.118Z,24.67
2023-04-10T10:05:00.683Z,24.32
2023-04-10T10:07:28.921Z,23.90
2023-04-10T10:09:56.667Z,23.43
2023-04-10T10:12:30.939Z,22.69
2023-04-10T10:15:02.933Z,22.26
2023-04-10T10:17:37.343Z,22.11
2023-04-10T10:20:08.854Z,21.76
2023-04-10T10:22:37.764Z,21.66
2023-04-10T10:25:06.079Z,21.59
2023-04-10T10:27:38.275Z,21.62
2023-04-10T10:30:25.416Z,21.64
2023-04-10T10:32:59.272Z,21.63
2023-04-10T10:35:29.545Z,21.61
2023-04-10T10:38:00.137Z,21.44
2023-04-10T10:40:32.360Z,21.27
2023-04-10T10:43:09.883Z,21.13
2023-04-10T10:45:42.185Z,21.06
2023-04-10T10:48:11.223Z,20.99
2023-04-10T10:50:58.696Z,20.94
2023-04-10T10:53:34.498Z,20.98
2023-04-10T10:56:34.977Z,20.99
2023-04-10T10:59:03.321Z,20.89
2023-04-10T11:01:30.957Z,20.86
2023-04-10T11:04:01.263Z,20.74
2023-04-10T11:06:52.176Z,20.62
2023-04-10T11:09:49.286Z,20.52
2023-04-10T11:12:17.609Z,20.16
2023-04-10T11:14:57.156Z,19.95
2023-04-10T11:17:50.640Z,19.75
2023-04-10T11:20:22.045Z,19.67
2023-04-10T11:23:08.202Z,19.74
2023-04-10T11:25:52.231Z,19.86
2023-04-10T11:28:35.672Z,20.01
2023-04-10T11:31:15.948Z,20.15
2023-04-10T11:33:43.513Z,20.28
2023-04-10T11:36:15.668Z,20.34
2023-04-10T11:38:54.896Z,20.48
2023-04-10T11:41:22.846Z,20.53
2023-04-10T11:43:52.502Z,20.24
2023-04-10T11:46:21.320Z,19.90
2023-04-10T11:48:48.957Z,19.56
2023-04-10T11:51:17.938Z,19.48
2023-04-10T11:53:46.255Z,19.47
2023-04-10T11:56:22.704Z,19.47
2023-04-10T11:58:54.652Z,19.60
2023-04-10T12:01:23.220Z,19.68
2023-04-10T12:03:51.574Z,19.73
2023-04-10T12:06:21.137Z,19.82
2023-04-10T12:08:51.077Z,19.88
2023-04-10T12:11:20.310Z,19.94
2023-04-10T12:13:48.182Z,19.94
2023-04-10T12:16:16.148Z,19.96
2023-04-10T12:18:44.735Z,19.90
2023-04-10T12:21:12.572Z,19.86
2023-04-10T12:23:41.500Z,19.80
2023-04-10T12:26:12.453Z,19.73
2023-04-10T12:28:42.064Z,19.64
2023-04-10T12:31:10.305Z,19.48
2023-04-10T12:33:37.899Z,19.40
2023-04-10T12:36:05.998Z,19.34
2023-04-10T12:38:42.717Z,19.35
2023-04-10T12:41:11.693Z,19.40
2023-04-10T12:43:41.203Z,19.41
2023-04-10T12:46:10.618Z,19.33
2023-04-10T12:48:38.265Z,19.08
2023-04-10T12:51:06.284Z,18.86
2023-04-10T12:53:45.834Z,18.80
2023-04-10T12:56:14.757Z,18.76
2023-04-10T12:58:42.718Z,18.59
2023-04-10T13:01:10.551Z,18.35
2023-04-10T13:03:38.745Z,18.23
2023-04-10T13:06:07.276Z,18.19
2023-04-10T13:08:35.043Z,18.18
2023-04-10T13:11:03.985Z,18.16
2023-04-10T13:13:32.814Z,18.16
2023-04-10T13:16:00.736Z,18.19
2023-04-10T13:18:28.298Z,18.14
2023-04-10T13:20:55.824Z,18.16
2023-04-10T13:23:23.364Z,18.21
2023-04-10T13:25:51.072Z,18.10
2023-04-10T13:28:21.465Z,18.01
2023-04-10T13:30:49.211Z,18.00
2023-04-10T13:33:16.772Z,18.01
2023-04-10T13:35:44.416Z,18.00
2023-04-10T13:38:12.551Z,17.95
2023-04-10T13:40:40.102Z,17.92
2023-04-10T13:43:07.621Z,17.91
2023-04-10T13:45:36.477Z,17.88
2023-04-10T13:48:04.243Z,17.88
2023-04-10T13:50:31.940Z,17.96
2023-04-10T13:52:59.496Z,18.01
2023-04-10T13:55:27.079Z,18.02
2023-04-10T13:57:54.636Z,18.02
2023-04-10T14:00:22.348Z,18.06
2023-04-10T14:02:51.290Z,18.08
2023-04-10T14:05:19.288Z,18.08
2023-04-10T14:07:46.852Z,18.12
2023-04-10T14:10:14.453Z,18.15
2023-04-10T14:12:41.950Z,18.18
2023-04-10T14:15:10.713Z,18.19
2023-04-10T14:17:38.277Z,18.20
2023-04-10T14:20:11.316Z,18.22
2023-04-10T14:22:38.855Z,18.15
2023-04-10T14:25:13.095Z,18.09
2023-04-10T14:27:41.419Z,18.06
2023-04-10T14:30:09.991Z,18.03
2023-04-10T14:32:37.717Z,17.96
2023-04-10T14:35:07.814Z,17.92
2023-04-10T14:37:35.401Z,17.92
2023-04-10T14:40:04.650Z,17.91
2023-04-10T14:42:32.419Z,17.90
2023-04-10T14:44:59.926Z,17.85
2023-04-10T14:47:27.628Z,17.70
2023-04-10T14:49:55.225Z,17.61
2023-04-10T14:52:24.585Z,17.59
2023-04-10T14:54:52.115Z,17.60
2023-04-10T14:57:19.629Z,17.61
2023-04-10T14:59:47.184Z,17.55
2023-04-10T15:02:15.318Z,17.44
2023-04-10T15:04:43.533Z,17.37
2023-04-10T15:07:11.066Z,17.30
2023-04-10T15:09:40.591Z,17.22
2023-04-10T15:12:08.450Z,17.13
2023-04-10T15:14:36.133Z,17.06
2023-04-10T15:17:03.725Z,17.04
2023-04-10T15:19:31.383Z,17.00
2023-04-10T15:21:58.917Z,17.00
2023-04-10T15:24:27.155Z,16.98
2023-04-10T15:26:57.657Z,16.95
2023-04-10T15:29:25.177Z,16.93
2023-04-10T15:31:52.722Z,16.86
2023-04-10T15:34:20.395Z,16.78
2023-04-10T15:36:47.934Z,16.72
2023-04-10T15:39:15.467Z,16.69
2023-04-10T15:41:42.982Z,16.68
2023-04-10T15:44:12.018Z,16.66
2023-04-10T15:46:39.535Z,16.65
2023-04-10T15:49:07.108Z,16.65
2023-04-10T15:51:34.706Z,16.67
2023-04-10T15:54:04.528Z,16.69
2023-04-10T15:56:32.158Z,16.71
2023-04-10T15:58:59.684Z,16.70
2023-04-10T16:01:28.726Z,16.65
2023-04-10T16:03:56.573Z,16.63
2023-04-10T16:06:25.859Z,16.63
2023-04-10T16:08:53.646Z,16.61
2023-04-10T16:11:21.583Z,16.55
2023-04-10T16:13:49.113Z,16.46
2023-04-10T16:16:17.441Z,16.40
2023-04-10T16:18:46.555Z,16.36
2023-04-10T16:21:15.149Z,16.33
2023-04-10T16:23:42.729Z,16.26
2023-04-10T16:26:10.238Z,16.20
2023-04-10T16:28:37.719Z,16.17
2023-04-10T16:31:05.739Z,16.10
2023-04-10T16:33:33.283Z,16.06
2023-04-10T16:36:04.562Z,16.04
2023-04-10T16:38:34.558Z,15.98
2023-04-10T16:41:03.155Z,15.93
2023-04-10T16:43:30.695Z,15.90
2023-04-10T16:45:59.411Z,15.84
2023-04-10T16:48:27.421Z,15.79
2023-04-10T16:50:55.055Z,15.77
2023-04-10T16:53:24.159Z,15.73
2023-04-10T16:55:57.771Z,15.70
2023-04-10T16:58:25.403Z,15.65
2023-04-10T17:00:53.019Z,15.62
2023-04-10T17:03:20.745Z,15.57
2023-04-10T17:05:48.284Z,15.52
2023-04-10T17:08:15.784Z,15.45
2023-04-10T17:10:44.675Z,15.42
2023-04-10T17:13:12.217Z,15.38
2023-04-10T17:15:39.730Z,15.35
2023-04-10T17:18:07.307Z,15.33
2023-04-10T17:20:36.616Z,15.30
2023-04-10T17:23:04.150Z,15.29
2023-04-10T17:25:31.738Z,15.22
2023-04-10T17:28:00.606Z,15.18
2023-04-10T17:30:28.317Z,15.14
2023-04-10T17:32:55.873Z,15.08
2023-04-10T17:35:23.918Z,15.04
2023-04-10T17:37:51.460Z,15.00
2023-04-10T17:40:19.323Z,14.97
2023-04-10T17:42:47.180Z,14.92
2023-04-10T17:45:16.279Z,14.89
2023-04-10T17:47:43.827Z,14.83
2023-04-10T17:50:11.949Z,14.79
2023-04-10T17:52:39.495Z,14.72
2023-04-10T17:55:08.113Z,14.69
2023-04-10T17:57:35.676Z,14.65
2023-04-10T18:00:06.794Z,14.61
2023-04-10T18:02:35.754Z,14.55
2023-04-10T18:05:03.616Z,14.50
2023-04-10T18:07:31.176Z,14.42
2023-04-10T18:09:58.687Z,14.36
2023-04-10T18:12:26.182Z,14.31
2023-04-10T18:14:53.698Z,14.25
2023-04-10T18:17:21.511Z,14.18
2023-04-10T18:19:50.944Z,14.12
2023-04-10T18:22:18.512Z,14.08
2023-04-10T18:24:47.167Z,14.01
2023-04-10T18:27:15.305Z,13.94
2023-04-10T18:29:43.787Z,13.86
2023-04-10T18:32:11.314Z,13.80
2023-04-10T18:34:38.815Z,13.73
2023-04-10T18:37:09.835Z,13.68
2023-04-10T18:39:38.285Z,13.62
2023-04-10T18:42:08.899Z,13.56
2023-04-10T18:44:36.405Z,13.53
2023-04-10T18:47:05.269Z,13.50
2023-04-10T18:49:33.007Z,13.46
2023-04-10T18:52:01.079Z,13.45
2023-04-10T18:54:30.073Z,13.43
2023-04-10T18:56:57.630Z,13.39
2023-04-10T18:59:25.345Z,13.36
2023-04-10T19:01:52.972Z,13.32
2023-04-10T19:04:20.698Z,13.27
2023-04-10T19:06:48.353Z,13.23
2023-04-10T19:09:15.911Z,13.17
2023-04-10T19:11:44.920Z,13.12
2023-04-10T19:14:12.440Z,13.09
2023-04-10T19:16:39.967Z,13.05
2023-04-10T19:19:07.484Z,13.01
2023-04-10T19:21:35.463Z,12.98
2023-04-10T19:24:03.010Z,12.95
2023-04-10T19:26:30.632Z,12.95
2023-04-10T19:29:00.239Z,12.96
2023-04-10T19:31:29.562Z,12.95
2023-04-10T19:33:57.200Z,12.93
2023-04-10T19:36:24.802Z,12.90
2023-04-10T19:38:52.331Z,12.88
2023-04-10T19:41:19.858Z,12.86
2023-04-10T19:43:47.426Z,12.82
2023-04-10T19:46:20.252Z,12.78
2023-04-10T19:48:48.496Z,12.75
2023-04-10T19:51:16.048Z,12.75
2023-04-10T19:53:43.667Z,12.72
2023-04-10T19:56:11.182Z,12.71
2023-04-10T19:58:40.559Z,12.68
2023-04-10T20:01:10.191Z,12.64
2023-04-10T20:03:39.493Z,12.57
2023-04-10T20:06:08.291Z,12.52
2023-04-10T20:08:36.158Z,12.48
2023-04-10T20:11:06.278Z,12.43
2023-04-10T20:13:34.670Z,12.41
2023-04-10T20:16:02.826Z,12.43
2023-04-10T20:18:32.183Z,12.46
2023-04-10T20:21:01.064Z,12.46
2023-04-10T20:23:28.635Z,12.47
2023-04-10T20:25:56.159Z,12.45
2023-04-10T20:28:23.680Z,12.42
2023-04-10T20:30:51.247Z,12.40
2023-04-10T20:33:18.814Z,12.36
2023-04-10T20:35:46.729Z,12.35
2023-04-10T20:38:15.704Z,12.34
2023-04-10T20:40:43.234Z,12.35
2023-04-10T20:43:12.261Z,12.35
2023-04-10T20:45:40.370Z,12.33
2023-04-10T20:48:09.517Z,12.28
2023-04-10T20:50:37.489Z,12.29
2023-04-10T20:53:05.081Z,12.32
2023-04-10T20:55:38.093Z,12.35
2023-04-10T20:58:05.809Z,12.35
2023-04-10T21:00:33.622Z,12.34
2023-04-10T21:03:01.399Z,12.39
2023-04-10T21:05:28.973Z,12.41
2023-04-10T21:07:56.527Z,12.42
2023-04-10T21:10:24.336Z,12.42
2023-04-10T21:12:53.177Z,12.41
2023-04-10T21:15:22.361Z,12.43
2023-04-10T21:17:49.928Z,12.44
2023-04-10T21:20:17.686Z,12.44
2023-04-10T21:22:45.199Z,12.44
2023-04-10T21:25:12.856Z,12.44
2023-04-10T21:27:40.382Z,12.42
2023-04-10T21:30:10.277Z,12.42
2023-04-10T21:32:37.896Z,12.44
2023-04-10T21:35:06.247Z,12.47
2023-04-10T21:37:33.794Z,12.48
2023-04-10T21:40:01.655Z,12.49
2023-04-10T21:42:29.366Z,12.47
2023-04-10T21:44:56.899Z,12.43
2023-04-10T21:47:25.760Z,12.40
2023-04-10T21:49:53.260Z,12.38
2023-04-10T21:52:20.764Z,12.35
2023-04-10T21:54:48.308Z,12.33
2023-04-10T21:57:15.823Z,12.33
2023-04-10T21:59:43.381Z,12.32
2023-04-10T22:02:11.404Z,12.32
2023-04-10T22:04:51.536Z,12.35
2023-04-10T22:07:22.047Z,12.34
2023-04-10T22:09:49.559Z,12.36
2023-04-10T22:12:17.093Z,12.32
2023-04-10T22:14:44.669Z,12.27
2023-04-10T22:17:12.206Z,12.22
2023-04-10T22:19:41.196Z,12.15
2023-04-10T22:22:09.209Z,12.11
2023-04-10T22:24:36.868Z,12.08
2023-04-10T22:27:04.493Z,12.04
2023-04-10T22:29:32.062Z,12.01
2023-04-10T22:31:59.572Z,12.02
2023-04-10T22:34:28.830Z,12.02
2023-04-10T22:40:44.120Z,12.00
2023-04-10T23:36:43.062Z,11.60
